Time;durP1;ratioP1;P1;durP2;ratioP2;P2;SDS_P1;SDS_P2;PMS_P1;PMS_P2;Temp;Humidity;BMP_temperature;BMP_pressure;BME280_temperature;BME280_humidity;BME280_pressure;Samples;Min_cycle;Max_cycle;Signal;HPM_P1;HPM_P2
2022/09/14 00:00:41;;;;;;;1.00;0.80;;;;;;;16.02;75.79;100675.84;6292593;28;20227;-78
2022/09/14 00:04:06;;;;;;;1.10;0.70;;;;;;;15.96;76.39;100673.81;6283165;28;20648;-78
2022/09/14 00:07:27;;;;;;;0.70;0.70;;;;;;;15.87;76.90;100674.88;6290582;28;20239;-77
2022/09/14 00:10:48;;;;;;;2.00;1.63;;;;;;;15.78;77.11;100667.78;6289512;28;20557;-78
2022/09/14 00:14:09;;;;;;;1.20;0.70;;;;;;;15.79;77.19;100666.75;6287763;28;20219;-79
2022/09/14 00:17:30;;;;;;;2.17;0.80;;;;;;;15.63;77.72;100663.22;6281687;28;20230;-77
2022/09/14 00:20:52;;;;;;;5.73;0.77;;;;;;;15.66;77.31;100652.03;6290066;28;20229;-80
2022/09/14 00:24:13;;;;;;;2.40;1.10;;;;;;;15.66;77.09;100650.16;6286749;28;20235;-78
2022/09/14 00:27:34;;;;;;;1.20;0.70;;;;;;;15.54;77.32;100647.97;6290328;28;20219;-78
2022/09/14 00:30:55;;;;;;;1.03;0.67;;;;;;;15.55;77.84;100647.81;6285838;28;20227;-78
2022/09/14 00:34:17;;;;;;;2.10;0.83;;;;;;;15.62;77.38;100643.38;6292356;28;20242;-77
2022/09/14 00:37:39;;;;;;;6.53;1.23;;;;;;;15.56;78.03;100630.47;6300168;28;20239;-78
2022/09/14 00:41:01;;;;;;;1.17;0.70;;;;;;;15.66;77.29;100628.41;6281432;28;20231;-78
2022/09/14 00:45:00;;;;;;;2.47;0.87;;;;;;;15.72;76.99;100605.09;6290214;28;20296;-78
2022/09/14 00:48:25;;;;;;;3.90;1.23;;;;;;;15.69;77.21;100614.47;6298109;28;20230;-79
2022/09/14 00:51:51;;;;;;;1.33;0.90;;;;;;;15.66;77.24;100601.22;6289147;28;20234;-78
2022/09/14 00:55:17;;;;;;;1.83;1.50;;;;;;;15.64;77.14;100611.44;6289291;28;20691;-77
2022/09/14 00:58:39;;;;;;;2.80;0.70;;;;;;;15.62;77.49;100593.59;6291607;28;20234;-77
2022/09/14 01:02:00;;;;;;;5.07;0.80;;;;;;;15.66;77.27;100594.94;6297629;28;20230;-76
2022/09/14 01:05:30;;;;;;;1.20;1.00;;;;;;;15.55;77.60;100593.44;6297951;28;20226;-78
2022/09/14 01:09:04;;;;;;;1.07;0.87;;;;;;;15.45;77.81;100589.25;6306047;28;20226;-78
2022/09/14 01:12:33;;;;;;;1.67;1.20;;;;;;;15.47;77.73;100596.19;6296593;28;20222;-77
2022/09/14 01:16:02;;;;;;;1.97;1.10;;;;;;;15.49;77.21;100594.16;6307172;28;20225;-77
2022/09/14 01:19:31;;;;;;;1.63;1.53;;;;;;;15.43;77.54;100594.84;6299541;28;20226;-77
2022/09/14 01:23:02;;;;;;;3.53;0.83;;;;;;;15.34;77.54;100593.13;6306479;28;20633;-77
2022/09/14 01:26:57;;;;;;;2.40;0.97;;;;;;;15.41;77.50;100612.31;6295045;28;20226;-78
2022/09/14 01:30:23;;;;;;;1.63;1.17;;;;;;;15.38;77.49;100610.78;6297158;28;20238;-78
2022/09/14 01:33:51;;;;;;;8.27;1.00;;;;;;;15.24;77.40;100611.50;6296153;28;20507;-77
2022/09/14 01:37:17;;;;;;;2.73;0.83;;;;;;;15.23;77.65;100606.25;6297005;28;20218;-78
2022/09/14 01:40:41;;;;;;;3.30;0.87;;;;;;;15.27;77.86;100611.13;6296721;28;20536;-77
2022/09/14 01:44:09;;;;;;;0.47;0.47;;;;;;;15.24;76.97;100606.06;6296749;28;20245;-77
2022/09/14 01:47:36;;;;;;;1.57;0.83;;;;;;;15.16;77.04;100611.53;6296285;28;20235;-76
2022/09/14 01:51:01;;;;;;;1.90;0.70;;;;;;;15.10;77.24;100604.88;6546740;22;20242;-78
2022/09/14 01:54:26;;;;;;;2.80;1.47;;;;;;;15.13;77.04;100599.13;6261896;28;20226;-78
2022/09/14 01:57:52;;;;;;;2.20;1.30;;;;;;;15.22;76.90;100597.25;6296840;28;20226;-77
2022/09/14 02:01:18;;;;;;;1.83;0.80;;;;;;;15.05;77.70;100593.72;6300941;28;20234;-78
2022/09/14 02:04:49;;;;;;;2.00;1.30;;;;;;;15.13;77.37;100603.69;6292486;28;20257;-78
2022/09/14 02:08:10;;;;;;;2.07;1.00;;;;;;;15.20;77.52;100607.44;6295037;28;20259;-78
2022/09/14 02:11:30;;;;;;;2.73;1.17;;;;;;;15.01;78.14;100611.38;6298641;28;20231;-77
2022/09/14 02:14:53;;;;;;;1.47;0.83;;;;;;;15.05;77.91;100611.88;6270045;28;20222;-78
2022/09/14 02:18:14;;;;;;;1.43;1.33;;;;;;;15.02;78.14;100609.47;6296652;28;23321;-78
2022/09/14 02:21:37;;;;;;;1.83;0.67;;;;;;;15.09;77.81;100599.63;6297261;28;20254;-79
2022/09/14 02:24:58;;;;;;;1.03;0.90;;;;;;;15.03;77.93;100609.34;6297022;28;20231;-78
2022/09/14 02:28:19;;;;;;;5.37;1.27;;;;;;;15.09;77.53;100605.06;6295168;28;20231;-78
2022/09/14 02:31:57;;;;;;;3.50;0.70;;;;;;;15.09;77.62;100600.50;6284100;28;20223;-78
2022/09/14 02:35:23;;;;;;;3.77;0.80;;;;;;;15.21;76.84;100595.53;6298248;28;20227;-78
2022/09/14 02:38:53;;;;;;;2.23;0.90;;;;;;;15.09;77.45;100595.06;6300471;28;20234;-78
2022/09/14 02:42:25;;;;;;;2.67;1.37;;;;;;;15.01;77.56;100594.22;6289925;28;20234;-78
2022/09/14 02:45:56;;;;;;;2.47;0.70;;;;;;;14.96;77.86;100596.59;6297013;28;20314;-78
2022/09/14 02:49:27;;;;;;;1.60;1.00;;;;;;;15.03;77.24;100587.59;6286544;28;20242;-78
2022/09/14 02:52:57;;;;;;;3.10;1.13;;;;;;;14.74;78.62;100591.88;6293236;28;20235;-78
2022/09/14 02:56:20;;;;;;;1.40;1.30;;;;;;;14.85;77.87;100581.50;6292155;28;20218;-79
2022/09/14 02:59:41;;;;;;;2.03;1.20;;;;;;;14.91;77.87;100589.00;6301630;28;20230;-79
2022/09/14 03:03:03;;;;;;;4.30;0.90;;;;;;;14.95;77.17;100586.78;6290761;28;20235;-80
2022/09/14 03:06:24;;;;;;;0.93;0.63;;;;;;;14.83;77.46;100586.25;6297201;28;20231;-79
2022/09/14 03:09:45;;;;;;;4.27;2.00;;;;;;;14.78;77.99;100585.94;6303687;28;20497;-80
2022/09/14 03:13:07;;;;;;;2.23;1.03;;;;;;;14.84;77.90;100584.38;6277439;28;20227;-80
2022/09/14 03:16:28;;;;;;;3.00;1.23;;;;;;;14.95;76.99;100587.63;6297103;28;20219;-79
2022/09/14 03:19:48;;;;;;;1.30;0.90;;;;;;;14.92;76.92;100585.25;6298265;28;20234;-79
2022/09/14 03:23:10;;;;;;;0.67;0.67;;;;;;;14.90;76.65;100578.28;6297751;28;20313;-78
2022/09/14 03:26:35;;;;;;;2.43;1.10;;;;;;;14.95;76.31;100581.34;6277733;28;20599;-77
2022/09/14 03:29:57;;;;;;;2.33;1.00;;;;;;;15.08;76.22;100574.34;6301253;28;20234;-77
2022/09/14 03:33:18;;;;;;;3.40;1.30;;;;;;;15.06;76.08;100575.56;6299029;28;20219;-78
2022/09/14 03:36:39;;;;;;;1.33;1.23;;;;;;;14.88;76.35;100574.88;6299662;28;20231;-78
2022/09/14 03:40:00;;;;;;;2.13;1.33;;;;;;;14.69;77.36;100569.81;6302096;28;20706;-78
2022/09/14 03:43:21;;;;;;;6.07;1.80;;;;;;;14.86;77.44;100558.78;6272555;28;20226;-78
2022/09/14 03:46:44;;;;;;;5.23;2.23;;;;;;;14.86;77.01;100566.06;6303469;28;20250;-77
2022/09/14 03:50:06;;;;;;;6.83;1.57;;;;;;;14.76;77.83;100563.56;6274836;28;20231;-78
2022/09/14 03:53:26;;;;;;;6.13;1.40;;;;;;;14.74;77.69;100559.31;6289051;28;20227;-78
2022/09/14 03:56:47;;;;;;;8.63;1.40;;;;;;;14.68;77.68;100555.41;6309190;28;20226;-78
2022/09/14 04:00:10;;;;;;;2.97;0.90;;;;;;;14.67;77.97;100539.28;6298328;28;20234;-77
2022/09/14 04:03:36;;;;;;;4.20;2.30;;;;;;;14.67;78.20;100544.72;6299721;28;20752;-78
2022/09/14 04:06:57;;;;;;;1.90;1.17;;;;;;;14.73;78.04;100549.44;6305895;28;20226;-79
2022/09/14 04:10:18;;;;;;;1.30;1.20;;;;;;;14.64;78.15;100534.22;6301763;28;20222;-79
2022/09/14 04:13:39;;;;;;;4.27;1.67;;;;;;;14.57;78.79;100530.47;6297491;28;20246;-79
2022/09/14 04:17:00;;;;;;;6.73;4.10;;;;;;;14.60;78.94;100525.56;6305230;28;20305;-78
2022/09/14 04:20:23;;;;;;;3.17;1.90;;;;;;;14.55;79.29;100532.50;6304121;28;20234;-77
2022/09/14 04:23:44;;;;;;;1.23;0.93;;;;;;;14.22;80.08;100540.63;6296531;28;20283;-78
2022/09/14 04:27:05;;;;;;;1.53;0.97;;;;;;;14.20;80.37;100536.38;6292452;28;20501;-78
2022/09/14 04:30:26;;;;;;;2.83;1.43;;;;;;;14.23;80.13;100542.28;6287241;28;20222;-79
2022/09/14 04:33:49;;;;;;;2.03;1.23;;;;;;;14.34;79.86;100533.03;6299089;28;20230;-79
2022/09/14 04:37:11;;;;;;;1.43;1.10;;;;;;;14.49;79.04;100536.75;6303925;28;20223;-79
2022/09/14 04:40:32;;;;;;;1.20;0.90;;;;;;;14.47;79.05;100543.38;6303544;28;20227;-78
2022/09/14 04:43:55;;;;;;;3.23;2.13;;;;;;;14.50;79.29;100548.47;6276717;28;20226;-78
2022/09/14 04:47:16;;;;;;;5.23;1.87;;;;;;;14.37;80.21;100554.41;6305710;28;20214;-78
2022/09/14 04:50:37;;;;;;;2.03;1.70;;;;;;;14.38;80.61;100546.09;6297445;28;20226;-78
2022/09/14 04:54:00;;;;;;;3.80;1.10;;;;;;;14.18;81.34;100552.81;6283590;28;20682;-79
2022/09/14 04:57:21;;;;;;;1.20;1.10;;;;;;;14.21;81.47;100554.31;6308473;28;20529;-78
2022/09/14 05:00:42;;;;;;;2.00;1.50;;;;;;;14.28;81.24;100545.41;6289934;28;20221;-79
2022/09/14 05:04:05;;;;;;;4.13;2.00;;;;;;;14.52;80.17;100546.44;6302406;28;20234;-77
2022/09/14 05:07:27;;;;;;;1.70;1.47;;;;;;;14.47;80.52;100544.22;6300258;28;20879;-77
2022/09/14 05:10:49;;;;;;;6.77;2.30;;;;;;;14.74;79.44;100533.03;6297504;28;20218;-77
2022/09/14 05:14:12;;;;;;;5.60;2.60;;;;;;;14.90;78.12;100543.84;6293978;28;20245;-76
2022/09/14 05:17:34;;;;;;;4.33;1.13;;;;;;;14.94;77.50;100545.19;6297956;28;21667;-77
2022/09/14 05:20:55;;;;;;;2.00;1.10;;;;;;;14.93;77.01;100537.22;6299348;28;20242;-79
2022/09/14 05:24:18;;;;;;;1.53;1.20;;;;;;;15.15;76.93;100539.22;6288528;28;20234;-77
2022/09/14 05:27:40;;;;;;;1.80;1.43;;;;;;;15.42;77.43;100530.63;6298052;28;20218;-77
2022/09/14 05:31:04;;;;;;;4.07;2.00;;;;;;;15.53;77.03;100533.00;6287432;28;20319;-80
2022/09/14 05:34:25;;;;;;;3.97;1.33;;;;;;;15.53;75.49;100537.59;6302974;28;20234;-80
2022/09/14 05:37:47;;;;;;;3.37;1.60;;;;;;;15.33;75.97;100537.13;6301206;28;20492;-78
2022/09/14 05:41:11;;;;;;;0.80;0.80;;;;;;;15.30;75.62;100539.34;6291171;28;20286;-77
2022/09/14 05:44:33;;;;;;;4.50;1.17;;;;;;;15.57;74.50;100531.63;6291082;28;20234;-77
2022/09/14 05:47:54;;;;;;;1.20;1.07;;;;;;;15.41;75.14;100530.81;6282564;28;20788;-77
2022/09/14 05:51:16;;;;;;;1.90;1.80;;;;;;;15.42;74.19;100535.22;6289469;28;20227;-82
2022/09/14 05:54:38;;;;;;;2.23;1.50;;;;;;;15.23;75.44;100540.03;6274734;28;20288;-74
2022/09/14 05:57:58;;;;;;;1.90;1.80;;;;;;;15.11;75.07;100543.28;6258876;28;20231;-70
2022/09/14 06:01:22;;;;;;;1.50;1.00;;;;;;;15.15;75.16;100542.78;6262474;28;20519;-77
2022/09/14 06:04:43;;;;;;;3.00;1.20;;;;;;;15.20;75.47;100539.53;6230841;28;21423;-72
2022/09/14 06:08:05;;;;;;;2.47;2.27;;;;;;;15.40;74.89;100537.25;6265112;28;20230;-70
2022/09/14 06:11:28;;;;;;;1.87;1.63;;;;;;;15.67;74.13;100534.13;6236703;28;20238;-75
2022/09/14 06:14:49;;;;;;;5.37;2.13;;;;;;;15.87;74.03;100535.38;6218800;28;20326;-73
2022/09/14 06:18:11;;;;;;;1.70;1.07;;;;;;;15.84;72.32;100531.16;6258901;28;20230;-74
2022/09/14 06:21:34;;;;;;;0.97;0.97;;;;;;;15.60;73.89;100542.16;6265323;28;20243;-73
2022/09/14 06:24:55;;;;;;;1.80;1.70;;;;;;;15.49;74.37;100542.53;6282238;28;20505;-74
2022/09/14 06:28:16;;;;;;;3.00;1.53;;;;;;;15.43;73.84;100536.94;6280753;28;20234;-75
2022/09/14 06:31:37;;;;;;;2.23;1.20;;;;;;;15.56;73.80;100537.25;6252766;28;20824;-73
2022/09/14 06:34:59;;;;;;;4.43;1.77;;;;;;;15.62;73.92;100531.09;6257314;28;20231;-72
2022/09/14 06:38:20;;;;;;;1.90;1.00;;;;;;;15.76;73.11;100536.63;6264059;28;20238;-71
2022/09/14 06:41:41;;;;;;;1.87;1.00;;;;;;;15.54;74.23;100542.00;6277476;28;20242;-78
2022/09/14 06:45:12;;;;;;;2.73;1.40;;;;;;;15.58;74.33;100543.34;6262647;28;20444;-78
2022/09/14 06:48:36;;;;;;;2.43;1.43;;;;;;;15.46;74.80;100533.91;6293878;28;20270;-79
2022/09/14 06:51:59;;;;;;;2.53;0.87;;;;;;;15.68;73.92;100527.66;6300739;28;20234;-74
2022/09/14 06:55:20;;;;;;;5.30;1.57;;;;;;;15.39;74.51;100531.00;6290632;28;20496;-73
2022/09/14 06:58:41;;;;;;;7.70;1.40;;;;;;;15.76;73.53;100528.47;6292627;28;20258;-73
2022/09/14 07:02:02;;;;;;;3.70;1.30;;;;;;;15.98;72.93;100533.09;6285284;28;20557;-74
2022/09/14 07:05:23;;;;;;;1.20;1.10;;;;;;;15.87;73.27;100530.78;6287753;28;20239;-74
2022/09/14 07:08:46;;;;;;;2.50;1.73;;;;;;;15.75;74.26;100532.22;6290958;28;20317;-75
2022/09/14 07:12:08;;;;;;;3.27;1.30;;;;;;;15.85;74.19;100532.81;6277277;28;20368;-73
2022/09/14 07:15:29;;;;;;;2.30;1.10;;;;;;;15.64;75.05;100529.91;6287451;28;22401;-78
2022/09/14 07:18:52;;;;;;;1.80;1.20;;;;;;;16.12;73.53;100536.09;6293384;28;20761;-77
2022/09/14 07:22:13;;;;;;;1.00;0.90;;;;;;;16.31;73.18;100535.63;6284325;28;20624;-71
2022/09/14 07:25:36;;;;;;;2.00;1.60;;;;;;;16.42;72.44;100541.47;6285706;28;20753;-73
2022/09/14 07:28:58;;;;;;;2.27;1.80;;;;;;;16.25;73.21;100533.63;6286389;28;20242;-75
2022/09/14 07:32:19;;;;;;;3.27;1.00;;;;;;;16.70;71.57;100529.03;6291882;28;20223;-76
2022/09/14 07:35:40;;;;;;;6.28;1.27;;;;;;;16.69;71.69;100540.06;6284337;28;20586;-76
2022/09/14 07:39:03;;;;;;;1.50;1.40;;;;;;;16.24;73.04;100549.09;6292785;28;20654;-77
2022/09/14 07:42:25;;;;;;;1.90;1.38;;;;;;;16.69;72.07;100535.47;6297402;28;20297;-77
2022/09/14 07:45:46;;;;;;;1.15;0.90;;;;;;;17.13;70.21;100543.72;6296555;28;20256;-75
2022/09/14 07:49:08;;;;;;;1.67;1.13;;;;;;;17.25;69.58;100539.50;6300558;28;20284;-75
2022/09/14 07:52:29;;;;;;;1.27;0.82;;;;;;;16.88;70.63;100536.84;6294428;28;20647;-75
2022/09/14 07:55:50;;;;;;;5.97;1.70;;;;;;;17.11;70.40;100542.22;6269869;28;20230;-76
2022/09/14 07:59:14;;;;;;;2.57;1.27;;;;;;;16.92;70.14;100542.78;6276592;28;20247;-75
2022/09/14 08:02:35;;;;;;;2.45;1.52;;;;;;;17.54;68.94;100538.72;6282315;28;20676;-75
2022/09/14 08:06:00;;;;;;;2.80;1.42;;;;;;;17.21;69.88;100538.19;6289107;28;20234;-72
2022/09/14 08:09:20;;;;;;;1.95;0.82;;;;;;;17.34;69.71;100529.34;6296280;28;20230;-72
2022/09/14 08:12:41;;;;;;;2.35;1.10;;;;;;;17.70;68.54;100526.72;6294250;28;20353;-75
2022/09/14 08:16:04;;;;;;;1.00;0.80;;;;;;;17.24;69.89;100534.25;6291759;28;20583;-72
2022/09/14 08:19:25;;;;;;;2.47;1.10;;;;;;;17.52;68.67;100536.16;6294064;28;20705;-74
2022/09/14 08:22:46;;;;;;;2.45;1.40;;;;;;;17.75;68.51;100524.28;6296076;28;20317;-74
2022/09/14 08:26:09;;;;;;;2.75;1.10;;;;;;;18.06;66.70;100531.19;6286306;28;20218;-75
2022/09/14 08:29:30;;;;;;;3.45;0.80;;;;;;;18.29;66.43;100525.53;6292162;28;20219;-74
2022/09/14 08:32:52;;;;;;;4.03;1.42;;;;;;;18.33;66.58;100524.97;6285531;28;20669;-72
2022/09/14 08:36:15;;;;;;;3.80;1.08;;;;;;;17.82;66.40;100522.47;6292128;28;20518;-73
2022/09/14 08:39:36;;;;;;;2.03;0.95;;;;;;;18.73;64.71;100509.78;6267603;28;20227;-72
2022/09/14 08:42:58;;;;;;;1.10;0.95;;;;;;;18.92;63.75;100511.84;6297937;28;20269;-72
2022/09/14 08:46:29;;;;;;;1.58;0.90;;;;;;;18.63;63.33;100503.81;6295585;28;20227;-74
2022/09/14 08:49:59;;;;;;;4.18;1.20;;;;;;;19.03;63.48;100510.44;6292456;28;20229;-73
2022/09/14 08:53:21;;;;;;;3.30;1.10;;;;;;;18.92;63.60;100502.81;6291684;28;20229;-73
2022/09/14 08:56:46;;;;;;;3.28;1.58;;;;;;;19.11;60.48;100499.34;6293305;28;20317;-73
2022/09/14 09:00:12;;;;;;;1.88;0.77;;;;;;;19.58;59.04;100493.97;6288722;28;20230;-74
2022/09/14 09:03:58;;;;;;;1.52;1.00;;;;;;;19.81;57.99;100499.13;6290889;28;20238;-72
2022/09/14 09:07:29;;;;;;;3.45;0.95;;;;;;;20.00;55.58;100486.53;6290622;28;20242;-73
2022/09/14 09:10:53;;;;;;;0.57;0.57;;;;;;;20.18;54.23;100482.16;6294923;28;20218;-73
2022/09/14 09:14:21;;;;;;;2.42;0.80;;;;;;;20.40;54.65;100485.59;6287380;28;20373;-73
2022/09/14 09:17:46;;;;;;;1.05;0.70;;;;;;;20.30;53.70;100480.53;6294380;28;20653;-74
2022/09/14 09:21:11;;;;;;;3.25;0.73;;;;;;;19.96;54.27;100485.28;6293708;28;20246;-75
2022/09/14 09:24:38;;;;;;;7.07;1.58;;;;;;;19.91;54.26;100485.88;6289084;28;20316;-74
2022/09/14 09:28:09;;;;;;;2.47;0.90;;;;;;;19.30;56.09;100484.09;6286286;28;20239;-71
2022/09/14 09:31:34;;;;;;;1.17;0.82;;;;;;;19.22;56.01;100476.94;6292032;28;20222;-71
2022/09/14 09:35:23;;;;;;;0.75;0.73;;;;;;;19.06;56.10;100464.44;6287199;28;20230;-73
2022/09/14 09:38:56;;;;;;;1.80;0.70;;;;;;;19.21;56.36;100468.94;6282088;28;20222;-75
2022/09/14 09:42:22;;;;;;;2.10;0.98;;;;;;;19.27;55.67;100471.72;6305039;28;20230;-73
2022/09/14 09:45:49;;;;;;;2.42;1.08;;;;;;;19.49;55.99;100475.19;6292891;28;20698;-72
2022/09/14 09:49:18;;;;;;;4.50;1.42;;;;;;;19.67;54.34;100464.56;6296461;28;20265;-74
2022/09/14 09:52:48;;;;;;;0.70;0.60;;;;;;;19.76;54.05;100460.56;6296449;28;20252;-73
2022/09/14 09:56:17;;;;;;;0.73;0.60;;;;;;;19.61;52.75;100452.53;6296722;28;20313;-71
2022/09/14 09:59:43;;;;;;;1.27;0.70;;;;;;;19.69;52.97;100446.88;6283378;28;20610;-73
2022/09/14 10:03:26;;;;;;;1.10;0.35;;;;;;;19.72;51.86;100445.63;6297972;28;20877;-72
2022/09/14 10:06:48;;;;;;;1.00;0.90;;;;;;;20.36;51.33;100441.34;6304558;28;20249;-76
2022/09/14 10:10:11;;;;;;;2.85;0.50;;;;;;;20.69;50.63;100446.84;6288093;28;20235;-74
2022/09/14 10:13:39;;;;;;;2.35;1.73;;;;;;;19.98;52.11;100444.84;6293611;28;20245;-63
2022/09/14 10:17:17;;;;;;;2.70;0.60;;;;;;;19.06;54.10;100456.25;6294844;28;20234;-64
2022/09/14 10:20:40;;;;;;;1.70;0.82;;;;;;;19.24;54.20;100443.91;6293944;28;20253;-64
2022/09/14 10:24:19;;;;;;;0.85;0.60;;;;;;;19.57;53.97;100454.00;6286308;28;20235;-63
2022/09/14 10:27:42;;;;;;;3.60;0.88;;;;;;;19.43;54.60;100460.47;6291223;28;20254;-63
2022/09/14 10:31:12;;;;;;;0.98;0.60;;;;;;;19.43;54.36;100445.94;6298432;28;20230;-63
2022/09/14 10:34:34;;;;;;;3.08;0.98;;;;;;;19.41;53.27;100442.56;6290911;28;20226;-63
2022/09/14 10:38:10;;;;;;;3.55;0.90;;;;;;;19.66;51.93;100446.44;6292994;28;20230;-63
2022/09/14 10:41:37;;;;;;;1.30;0.95;;;;;;;19.47;52.51;100449.94;6284437;28;21749;-63
2022/09/14 10:45:17;;;;;;;1.15;0.60;;;;;;;19.24;52.38;100449.38;6284965;28;20230;-63
2022/09/14 10:49:01;;;;;;;3.55;1.20;;;;;;;19.57;54.00;100454.00;6282787;28;20218;-64
2022/09/14 10:52:31;;;;;;;1.13;0.57;;;;;;;19.18;54.16;100461.97;6294569;28;20226;-63
2022/09/14 10:56:00;;;;;;;2.88;1.63;;;;;;;19.16;54.26;100453.13;6283464;28;20230;-62
2022/09/14 10:59:32;;;;;;;1.15;0.80;;;;;;;19.18;53.80;100437.38;6288288;28;20234;-63
2022/09/14 11:03:16;;;;;;;0.60;0.60;;;;;;;19.32;55.43;100449.22;6289506;28;20776;-63
2022/09/14 11:06:49;;;;;;;1.42;1.02;;;;;;;19.45;53.14;100452.91;6292117;28;20230;-63
2022/09/14 11:10:20;;;;;;;1.48;0.45;;;;;;;20.04;51.98;100455.81;6291120;28;20226;-63
2022/09/14 11:13:57;;;;;;;3.30;1.08;;;;;;;21.73;47.78;100456.69;6290747;28;20237;-63
2022/09/14 11:17:46;;;;;;;1.65;0.93;;;;;;;21.63;46.24;100459.06;6292398;28;20226;-64
2022/09/14 11:21:15;;;;;;;2.88;0.70;;;;;;;21.83;47.56;100450.75;6288441;28;20270;-64
2022/09/14 11:24:42;;;;;;;2.25;1.00;;;;;;;21.43;49.19;100444.56;6279689;28;20234;-62
2022/09/14 11:28:08;;;;;;;2.47;1.50;;;;;;;21.64;48.96;100447.00;6290029;28;20231;-63
2022/09/14 11:31:34;;;;;;;6.93;1.00;;;;;;;20.51;51.03;100447.47;6288473;28;20226;-63
2022/09/14 11:35:00;;;;;;;1.83;1.70;;;;;;;20.06;51.89;100436.44;6285247;28;20234;-64
2022/09/14 11:38:28;;;;;;;3.38;0.70;;;;;;;19.56;53.64;100441.38;6283732;28;20531;-64
2022/09/14 11:41:52;;;;;;;1.70;0.90;;;;;;;19.53;54.47;100446.41;6285213;28;20222;-62
2022/09/14 11:45:23;;;;;;;1.27;0.63;;;;;;;19.56;55.38;100446.84;6284296;28;20238;-63
2022/09/14 11:48:52;;;;;;;1.33;0.80;;;;;;;19.25;55.71;100446.47;6290228;28;22287;-62
2022/09/14 11:52:18;;;;;;;2.72;1.15;;;;;;;19.04;56.99;100455.59;6290463;28;20227;-62
2022/09/14 11:55:44;;;;;;;3.75;1.70;;;;;;;19.21;58.24;100449.81;6284135;28;20222;-62
2022/09/14 11:59:07;;;;;;;1.67;1.00;;;;;;;18.81;58.25;100449.56;6281464;28;20234;-62
2022/09/14 12:03:00;;;;;;;1.75;0.90;;;;;;;18.93;59.18;100445.22;6280991;28;20502;-62
2022/09/14 12:06:44;;;;;;;2.63;2.28;;;;;;;18.79;58.87;100448.94;6274503;28;20230;-62
2022/09/14 12:10:18;;;;;;;3.13;0.73;;;;;;;18.61;60.06;100442.28;6277680;28;20226;-62
2022/09/14 12:13:39;;;;;;;3.90;1.55;;;;;;;18.32;61.98;100445.97;6262431;28;20556;-62
2022/09/14 12:17:15;;;;;;;2.00;0.80;;;;;;;18.45;61.90;100445.28;6276745;28;20234;-62
2022/09/14 12:20:43;;;;;;;1.13;0.70;;;;;;;18.33;62.43;100443.06;6275750;28;20222;-62
2022/09/14 12:24:14;;;;;;;1.80;0.95;;;;;;;18.47;61.58;100443.19;6274499;28;20234;-63
2022/09/14 12:27:37;;;;;;;7.15;0.65;;;;;;;18.65;61.16;100430.75;6264967;28;20234;-63
2022/09/14 12:31:13;;;;;;;9.43;1.10;;;;;;;19.06;59.35;100439.00;6294527;28;20293;-63
2022/09/14 12:34:34;;;;;;;1.33;1.05;;;;;;;19.03;58.94;100437.50;6268449;28;20238;-63
2022/09/14 12:37:56;;;;;;;2.88;1.15;;;;;;;19.12;58.03;100428.13;6278583;28;20234;-61
2022/09/14 12:41:58;;;;;;;2.60;1.13;;;;;;;20.00;55.52;100431.81;6279451;28;20246;-63
2022/09/14 12:45:49;;;;;;;3.00;0.73;;;;;;;22.08;49.52;100418.69;6283486;28;20238;-63
2022/09/14 12:49:28;;;;;;;1.10;0.98;;;;;;;20.91;53.40;100428.25;6281005;28;20325;-64
2022/09/14 12:53:04;;;;;;;2.65;1.20;;;;;;;20.66;53.68;100428.91;6277010;28;20226;-63
2022/09/14 12:56:31;;;;;;;1.73;1.00;;;;;;;19.98;55.86;100434.75;6274635;28;20518;-63
2022/09/14 12:59:58;;;;;;;2.85;1.15;;;;;;;19.81;57.35;100423.38;6286932;28;20295;-64
2022/09/14 13:03:37;;;;;;;2.22;0.95;;;;;;;19.83;57.43;100429.47;6277699;28;20222;-63
2022/09/14 13:07:01;;;;;;;3.10;1.33;;;;;;;19.82;57.68;100425.03;6273559;28;20238;-62
2022/09/14 13:10:28;;;;;;;1.27;0.65;;;;;;;20.00;57.17;100427.19;6291027;28;20581;-64
2022/09/14 13:13:50;;;;;;;1.67;1.05;;;;;;;20.03;57.74;100424.00;6283542;28;20261;-63
2022/09/14 13:17:13;;;;;;;2.72;1.80;;;;;;;20.52;56.05;100410.81;6295727;28;20226;-63
2022/09/14 13:20:35;;;;;;;4.05;0.90;;;;;;;20.79;55.06;100419.84;6285215;28;20226;-62
2022/09/14 13:23:56;;;;;;;4.10;1.75;;;;;;;20.37;55.92;100414.81;6285018;28;20238;-63
2022/09/14 13:27:22;;;;;;;1.13;0.70;;;;;;;19.69;57.29;100408.56;6285547;28;20805;-63
2022/09/14 13:30:53;;;;;;;5.78;1.02;;;;;;;19.71;57.52;100395.53;6285653;28;20226;-63
2022/09/14 13:34:20;;;;;;;1.65;1.23;;;;;;;19.68;58.38;100403.31;6282856;28;20253;-63
2022/09/14 13:37:41;;;;;;;2.85;1.30;;;;;;;19.40;58.34;100397.97;6286740;28;20231;-63
2022/09/14 13:41:09;;;;;;;4.43;1.10;;;;;;;19.27;57.73;100399.78;6289366;28;20230;-63
2022/09/14 13:44:34;;;;;;;2.22;1.50;;;;;;;18.90;58.13;100390.97;6291503;28;20231;-62
2022/09/14 13:47:55;;;;;;;2.53;1.33;;;;;;;19.12;57.37;100386.28;6284086;28;20238;-63
2022/09/14 13:51:21;;;;;;;4.40;1.27;;;;;;;19.19;55.70;100386.31;6279367;28;22192;-64
2022/09/14 13:54:42;;;;;;;2.05;0.73;;;;;;;19.10;55.59;100377.44;6285221;28;20583;-63
2022/09/14 13:58:12;;;;;;;1.02;0.60;;;;;;;19.01;54.85;100376.75;6291534;28;20218;-62
2022/09/14 14:01:38;;;;;;;3.10;0.77;;;;;;;18.90;55.06;100369.13;6300357;28;20238;-64
2022/09/14 14:04:59;;;;;;;1.73;0.82;;;;;;;18.94;55.34;100375.88;6281096;28;20234;-62
2022/09/14 14:08:28;;;;;;;3.30;1.00;;;;;;;19.11;55.79;100377.22;6286668;28;20226;-63
2022/09/14 14:11:53;;;;;;;2.92;1.92;;;;;;;19.25;55.87;100364.47;6271690;28;20226;-62
2022/09/14 14:15:36;;;;;;;1.58;1.35;;;;;;;19.62;55.40;100360.38;6289954;28;20218;-61
2022/09/14 14:18:59;;;;;;;6.63;1.17;;;;;;;19.79;54.44;100369.91;6285895;28;20231;-62
2022/09/14 14:22:23;;;;;;;2.55;0.75;;;;;;;19.65;53.62;100363.53;6268395;28;20590;-62
2022/09/14 14:25:46;;;;;;;7.20;1.35;;;;;;;19.61;53.99;100359.53;6259482;28;20805;-61
2022/09/14 14:29:08;;;;;;;4.18;1.77;;;;;;;19.65;53.40;100352.59;6280668;28;21005;-63
2022/09/14 14:32:30;;;;;;;2.95;1.17;;;;;;;19.76;55.04;100351.16;6289290;28;20606;-61
2022/09/14 14:35:55;;;;;;;1.55;0.77;;;;;;;19.96;55.31;100348.44;6285668;28;20516;-62
2022/09/14 14:39:18;;;;;;;2.25;0.90;;;;;;;20.07;53.03;100340.44;6279676;28;20234;-62
2022/09/14 14:42:39;;;;;;;2.63;1.17;;;;;;;19.82;52.95;100344.84;6252779;28;20714;-74
2022/09/14 14:46:01;;;;;;;3.38;1.73;;;;;;;19.47;53.13;100337.84;6303019;28;20234;-76
2022/09/14 14:49:22;;;;;;;1.33;1.10;;;;;;;19.62;52.89;100342.09;6297573;28;20214;-77
2022/09/14 14:52:44;;;;;;;0.95;0.60;;;;;;;19.46;51.39;100339.72;6296996;28;20242;-76
2022/09/14 14:56:06;;;;;;;1.38;0.63;;;;;;;19.62;51.09;100325.69;6295511;28;20226;-79
2022/09/14 14:59:28;;;;;;;1.02;0.60;;;;;;;19.81;50.31;100329.50;6301002;28;20243;-79
2022/09/14 15:02:50;;;;;;;1.17;0.60;;;;;;;20.19;50.60;100318.75;6309894;28;20602;-77
2022/09/14 15:06:14;;;;;;;0.90;0.88;;;;;;;20.54;49.96;100310.09;6291130;28;20226;-78
2022/09/14 15:09:36;;;;;;;4.85;1.05;;;;;;;20.69;51.16;100309.84;6290663;28;20233;-77
2022/09/14 15:12:57;;;;;;;0.50;0.50;;;;;;;20.70;50.31;100306.03;6263189;28;20254;-77
2022/09/14 15:16:19;;;;;;;0.63;0.63;;;;;;;20.69;50.60;100316.16;6289894;28;20238;-76
2022/09/14 15:19:39;;;;;;;0.63;0.60;;;;;;;20.64;50.68;100315.97;6294216;28;20593;-77
2022/09/14 15:23:00;;;;;;;0.93;0.82;;;;;;;21.26;48.56;100298.00;6273703;28;20431;-77
2022/09/14 15:26:23;;;;;;;0.52;0.47;;;;;;;20.92;48.34;100291.00;6280740;28;20230;-77
2022/09/14 15:29:44;;;;;;;1.10;0.60;;;;;;;20.82;49.94;100293.34;6282110;28;20522;-76
2022/09/14 15:33:05;;;;;;;0.70;0.60;;;;;;;20.61;49.97;100291.72;6289321;28;20219;-77
2022/09/14 15:36:40;;;;;;;0.70;0.70;;;;;;;20.12;51.04;100288.66;6298772;28;20218;-77
2022/09/14 15:40:01;;;;;;;1.30;0.40;;;;;;;20.04;51.12;100299.81;6290692;28;20257;-77
2022/09/14 15:43:23;;;;;;;1.75;0.50;;;;;;;20.19;51.34;100294.13;6292952;28;21822;-77
2022/09/14 15:46:45;;;;;;;2.33;0.40;;;;;;;20.06;51.90;100294.13;6296078;28;20250;-76
2022/09/14 15:50:06;;;;;;;0.28;0.25;;;;;;;19.88;52.88;100287.38;6295836;28;20658;-74
2022/09/14 15:53:28;;;;;;;1.30;1.20;;;;;;;19.59;54.35;100293.28;6303587;28;20860;-76